createdAt,value
2018-09-18T00:00:35.547Z,78.20
2018-09-18T00:03:41.315Z,78.40
2018-09-18T00:06:46.758Z,79.30
2018-09-18T00:09:52.415Z,80.00
2018-09-18T00:12:57.772Z,80.80
2018-09-18T00:16:03.478Z,81.30
2018-09-18T00:19:08.918Z,81.10
2018-09-18T00:22:14.268Z,80.50
2018-09-18T00:25:20.001Z,79.70
2018-09-18T00:28:25.641Z,79.20
2018-09-18T00:31:31.089Z,79.10
2018-09-18T00:34:36.465Z,78.30
2018-09-18T00:37:42.226Z,78.00
2018-09-18T00:40:47.601Z,78.10
2018-09-18T00:43:53.005Z,78.10
2018-09-18T00:46:58.370Z,78.40
2018-09-18T00:50:03.819Z,78.40
2018-09-18T00:53:09.361Z,78.30
2018-09-18T00:56:14.734Z,77.40
2018-09-18T00:59:20.214Z,77.60
2018-09-18T01:02:25.571Z,77.40
2018-09-18T01:05:31.090Z,77.70
2018-09-18T01:08:36.626Z,76.50
2018-09-18T01:11:42.002Z,76.20
2018-09-18T01:14:47.389Z,75.40
2018-09-18T01:17:52.869Z,74.90
2018-09-18T01:20:58.336Z,75.60
2018-09-18T01:24:03.693Z,75.60
2018-09-18T01:27:09.070Z,75.00
2018-09-18T01:30:14.477Z,75.60
2018-09-18T01:33:19.839Z,75.30
2018-09-18T01:36:25.621Z,75.30
2018-09-18T01:39:31.142Z,74.10
2018-09-18T01:42:36.489Z,74.40
2018-09-18T01:45:41.921Z,74.10
2018-09-18T01:48:47.316Z,74.10
2018-09-18T01:51:52.874Z,74.20
2018-09-18T01:54:58.289Z,73.90
2018-09-18T01:58:03.762Z,73.70
2018-09-18T02:01:09.177Z,73.60
2018-09-18T02:04:14.519Z,74.20
2018-09-18T02:07:19.906Z,74.10
2018-09-18T02:10:25.323Z,73.60
2018-09-18T02:13:30.671Z,74.20
2018-09-18T02:16:36.030Z,73.50
2018-09-18T02:19:41.513Z,74.00
2018-09-18T02:22:46.881Z,74.40
2018-09-18T02:25:52.359Z,74.30
2018-09-18T02:28:57.881Z,74.50
2018-09-18T02:32:03.715Z,75.10
2018-09-18T02:35:09.093Z,75.80
2018-09-18T02:38:14.488Z,75.70
2018-09-18T02:41:20.498Z,75.10
2018-09-18T02:44:25.851Z,74.90
2018-09-18T02:47:31.342Z,75.30
2018-09-18T02:50:36.757Z,75.10
2018-09-18T02:53:42.121Z,75.50
2018-09-18T02:56:47.562Z,75.00
2018-09-18T02:59:53.090Z,75.50
2018-09-18T03:02:58.461Z,74.70
2018-09-18T03:06:04.010Z,74.80
2018-09-18T03:09:10.876Z,74.40
2018-09-18T03:12:16.263Z,74.70
2018-09-18T03:15:22.286Z,74.40
2018-09-18T03:18:27.672Z,74.80
2018-09-18T03:21:33.063Z,75.00
2018-09-18T03:24:38.416Z,75.40
2018-09-18T03:27:43.824Z,75.80
2018-09-18T03:30:49.234Z,74.90
2018-09-18T03:33:54.589Z,76.00
2018-09-18T03:37:00.066Z,75.20
2018-09-18T03:40:05.829Z,75.90
2018-09-18T03:43:11.249Z,75.20
2018-09-18T03:46:16.647Z,75.10
2018-09-18T03:49:22.118Z,75.20
2018-09-18T03:52:27.525Z,75.10
2018-09-18T03:55:32.913Z,75.50
2018-09-18T03:58:38.369Z,76.50
2018-09-18T04:01:43.737Z,75.90
2018-09-18T04:04:49.093Z,76.00
2018-09-18T04:07:54.597Z,76.20
2018-09-18T04:11:00.290Z,76.10
2018-09-18T04:14:05.687Z,76.50
2018-09-18T04:17:11.092Z,76.40
2018-09-18T04:20:16.789Z,76.40
2018-09-18T04:23:22.174Z,76.40
2018-09-18T04:26:27.537Z,76.50
2018-09-18T04:29:33.050Z,76.60
2018-09-18T04:32:38.445Z,76.50
2018-09-18T04:35:43.798Z,76.40
2018-09-18T04:38:49.259Z,76.80
2018-09-18T04:41:54.709Z,77.20
2018-09-18T04:45:00.186Z,77.70
2018-09-18T04:48:06.165Z,77.90
2018-09-18T04:51:11.693Z,78.00
2018-09-18T04:54:17.052Z,77.90
2018-09-18T04:57:22.494Z,78.00
2018-09-18T05:00:27.850Z,78.10
2018-09-18T05:03:33.554Z,77.90
2018-09-18T05:06:38.959Z,77.80
2018-09-18T05:09:44.433Z,78.10
2018-09-18T05:12:49.821Z,77.90
2018-09-18T05:15:55.297Z,78.40
2018-09-18T05:19:00.864Z,78.70
2018-09-18T05:22:06.253Z,77.90
2018-09-18T05:25:11.821Z,78.20
2018-09-18T05:28:17.252Z,77.90
2018-09-18T05:31:22.621Z,78.40
2018-09-18T05:34:27.994Z,78.70
2018-09-18T05:37:33.491Z,78.40
2018-09-18T05:40:38.854Z,78.10
2018-09-18T05:43:44.558Z,77.60
2018-09-18T05:46:50.034Z,77.20
2018-09-18T05:49:55.606Z,77.10
2018-09-18T05:53:01.017Z,77.00
2018-09-18T05:56:06.382Z,76.30
2018-09-18T05:59:11.849Z,76.30
2018-09-18T06:02:17.251Z,75.90
2018-09-18T06:05:22.864Z,75.80
2018-09-18T06:08:28.294Z,75.30
2018-09-18T06:11:34.052Z,75.20
2018-09-18T06:14:39.599Z,75.40
2018-09-18T06:17:45.185Z,75.50
2018-09-18T06:20:50.625Z,75.10
2018-09-18T06:23:56.028Z,74.20
2018-09-18T06:27:01.382Z,74.00
2018-09-18T06:30:07.167Z,74.20
2018-09-18T06:33:12.582Z,74.20
2018-09-18T06:36:18.123Z,73.80
2018-09-18T06:39:23.595Z,73.30
2018-09-18T06:42:29.060Z,73.30
2018-09-18T06:45:34.650Z,72.90
2018-09-18T06:48:40.301Z,73.20
2018-09-18T06:51:45.745Z,73.00
2018-09-18T06:54:51.127Z,73.00
2018-09-18T06:57:56.619Z,70.80
2018-09-18T07:01:02.074Z,71.10
2018-09-18T07:04:07.448Z,69.60
2018-09-18T07:07:13.713Z,70.10
2018-09-18T07:10:19.246Z,70.10
2018-09-18T07:13:24.642Z,69.10
2018-09-18T07:16:29.998Z,69.50
2018-09-18T07:19:35.720Z,68.60
2018-09-18T07:22:41.560Z,68.60
2018-09-18T07:25:47.023Z,67.90
2018-09-18T07:28:52.545Z,67.50
2018-09-18T07:31:57.929Z,67.40
2018-09-18T07:35:03.322Z,66.70
2018-09-18T07:38:08.686Z,65.90
2018-09-18T07:41:14.100Z,65.80
2018-09-18T07:44:19.482Z,65.30
2018-09-18T07:47:24.973Z,65.30
2018-09-18T07:50:30.354Z,65.20
2018-09-18T07:53:35.766Z,65.70
2018-09-18T07:56:41.120Z,64.20
2018-09-18T07:59:46.517Z,63.40
2018-09-18T08:02:53.994Z,63.10
2018-09-18T08:05:59.367Z,61.40
2018-09-18T08:09:08.343Z,61.10
2018-09-18T08:12:13.710Z,60.40
2018-09-18T08:15:19.078Z,60.30
2018-09-18T08:18:24.430Z,60.00
2018-09-18T08:21:29.905Z,59.40
2018-09-18T08:24:35.294Z,60.00
2018-09-18T08:27:40.666Z,58.90
2018-09-18T08:30:46.087Z,58.70
2018-09-18T08:33:51.506Z,58.20
2018-09-18T08:36:56.917Z,57.30
2018-09-18T08:40:02.492Z,55.70
2018-09-18T08:43:08.490Z,54.80
2018-09-18T08:46:13.924Z,54.50
2018-09-18T08:49:19.497Z,54.20
2018-09-18T08:52:24.854Z,54.30
2018-09-18T08:55:30.276Z,54.70
2018-09-18T08:58:35.847Z,54.80
2018-09-18T09:01:42.107Z,56.30
2018-09-18T09:04:47.609Z,55.60
2018-09-18T09:07:53.038Z,55.40
2018-09-18T09:10:58.656Z,55.00
2018-09-18T09:14:04.160Z,55.00
2018-09-18T09:17:09.544Z,55.50
2018-09-18T09:20:15.411Z,56.30
2018-09-18T09:23:20.804Z,55.00
2018-09-18T09:26:26.481Z,54.60
2018-09-18T09:29:32.010Z,54.30
2018-09-18T09:32:37.702Z,54.40
2018-09-18T09:35:43.136Z,54.70
2018-09-18T09:38:48.607Z,55.00
2018-09-18T09:41:54.110Z,54.30
2018-09-18T09:44:59.545Z,53.90
2018-09-18T09:48:05.070Z,53.80
2018-09-18T09:51:10.527Z,53.70
2018-09-18T09:54:16.040Z,53.90
2018-09-18T09:57:21.418Z,54.00
2018-09-18T10:00:32.038Z,53.40
2018-09-18T10:03:37.405Z,52.40
2018-09-18T10:06:42.778Z,52.40
2018-09-18T10:09:48.127Z,51.90
2018-09-18T10:12:53.502Z,51.40
2018-09-18T10:15:58.882Z,51.30
2018-09-18T10:19:05.394Z,51.30
2018-09-18T10:22:10.793Z,51.00
2018-09-18T10:25:16.858Z,51.00
2018-09-18T10:28:22.440Z,50.60
2018-09-18T10:31:28.054Z,50.60
2018-09-18T10:34:35.530Z,50.10
2018-09-18T10:37:41.532Z,49.20
2018-09-18T10:40:47.165Z,48.30
2018-09-18T10:43:52.707Z,47.70
2018-09-18T10:46:58.310Z,45.90
2018-09-18T10:50:03.750Z,44.60
2018-09-18T10:53:09.130Z,43.10
2018-09-18T10:56:14.510Z,42.10
2018-09-18T10:59:19.869Z,41.70
2018-09-18T11:02:25.291Z,41.20
2018-09-18T11:05:31.536Z,41.40
2018-09-18T11:08:37.598Z,41.40
2018-09-18T11:11:43.342Z,40.90
2018-09-18T11:14:48.766Z,40.70
2018-09-18T11:17:54.385Z,40.40
2018-09-18T11:21:00.041Z,40.20
2018-09-18T11:24:06.431Z,39.40
2018-09-18T11:27:11.989Z,40.40
2018-09-18T11:30:17.373Z,40.00
2018-09-18T11:33:22.752Z,38.90
2018-09-18T11:36:28.886Z,38.60
2018-09-18T11:39:34.928Z,37.50
2018-09-18T11:42:40.298Z,37.30
2018-09-18T11:45:45.784Z,34.80
2018-09-18T11:48:51.327Z,33.30
2018-09-18T11:51:56.698Z,32.30
2018-09-18T11:55:02.067Z,31.90
2018-09-18T11:58:07.486Z,30.40
2018-09-18T12:01:12.900Z,30.00
2018-09-18T12:04:18.252Z,30.00
2018-09-18T12:07:23.657Z,29.50
2018-09-18T12:10:29.050Z,28.70
2018-09-18T12:13:34.427Z,28.40
2018-09-18T12:16:39.802Z,27.90
2018-09-18T12:19:45.154Z,27.90
2018-09-18T12:22:50.612Z,27.80
2018-09-18T12:25:56.102Z,27.50
2018-09-18T12:29:01.526Z,27.00
2018-09-18T12:32:07.462Z,26.40
2018-09-18T12:35:12.924Z,25.90
2018-09-18T12:38:18.457Z,25.90
2018-09-18T12:41:23.911Z,25.70
2018-09-18T12:44:29.446Z,25.90
2018-09-18T12:47:35.203Z,25.80
2018-09-18T12:50:40.625Z,25.80
2018-09-18T12:53:46.343Z,25.30
2018-09-18T12:56:51.966Z,25.50
2018-09-18T12:59:57.640Z,25.10
2018-09-18T13:03:03.201Z,25.10
2018-09-18T13:06:08.625Z,24.50
2018-09-18T13:09:14.594Z,24.30
2018-09-18T13:12:19.991Z,24.20
2018-09-18T13:15:25.617Z,24.10
2018-09-18T13:18:31.273Z,23.90
2018-09-18T13:21:36.710Z,23.80
2018-09-18T13:24:42.310Z,24.10
2018-09-18T13:27:48.668Z,24.20
2018-09-18T13:30:54.538Z,24.50
2018-09-18T13:33:59.906Z,25.40
2018-09-18T13:37:05.978Z,26.10
2018-09-18T13:40:11.796Z,27.20
2018-09-18T13:43:17.170Z,28.00
2018-09-18T13:46:22.689Z,28.60
2018-09-18T13:49:28.821Z,29.50
2018-09-18T13:52:34.229Z,30.20
2018-09-18T13:55:40.648Z,30.40
2018-09-18T13:58:46.569Z,30.30
2018-09-18T14:01:52.354Z,30.40
2018-09-18T14:04:58.040Z,31.00
2018-09-18T14:08:03.541Z,31.30
2018-09-18T14:11:09.766Z,32.10
2018-09-18T14:14:15.142Z,32.10
2018-09-18T14:17:20.737Z,32.80
2018-09-18T14:20:26.164Z,32.20
2018-09-18T14:23:31.649Z,32.90
2018-09-18T14:26:37.188Z,33.20
2018-09-18T14:29:42.806Z,33.00
2018-09-18T14:32:48.519Z,33.20
2018-09-18T14:35:53.976Z,33.30
2018-09-18T14:38:59.998Z,33.60
2018-09-18T14:42:05.378Z,34.10
2018-09-18T14:45:10.792Z,34.20
2018-09-18T14:48:16.370Z,34.30
2018-09-18T14:51:21.803Z,34.40
2018-09-18T14:54:27.293Z,34.20
2018-09-18T14:57:33.398Z,34.50
2018-09-18T15:00:39.125Z,35.00
2018-09-18T15:03:44.458Z,34.70
2018-09-18T15:06:49.964Z,35.20
2018-09-18T15:09:55.338Z,35.40
2018-09-18T15:13:01.093Z,35.80
2018-09-18T15:16:06.837Z,35.00
2018-09-18T15:19:12.458Z,36.50
2018-09-18T15:22:17.971Z,35.60
2018-09-18T15:25:23.665Z,36.30
2018-09-18T15:28:29.018Z,36.40
2018-09-18T15:31:34.930Z,36.40
2018-09-18T15:34:40.281Z,37.40
2018-09-18T15:37:45.640Z,37.10
2018-09-18T15:40:51.005Z,36.40
2018-09-18T15:43:56.354Z,36.70
2018-09-18T15:47:01.887Z,36.50
2018-09-18T15:50:07.636Z,36.50
2018-09-18T15:53:12.993Z,36.40
2018-09-18T15:56:18.366Z,37.20
2018-09-18T15:59:23.737Z,38.10
2018-09-18T16:02:29.086Z,38.90
2018-09-18T16:05:34.450Z,37.90
2018-09-18T16:08:39.903Z,38.90
2018-09-18T16:11:45.281Z,39.00
2018-09-18T16:14:50.706Z,38.30
2018-09-18T16:17:56.247Z,39.70
2018-09-18T16:21:02.585Z,40.50
2018-09-18T16:24:08.377Z,40.90
2018-09-18T16:27:13.749Z,40.00
2018-09-18T16:30:19.157Z,38.60
2018-09-18T16:33:24.514Z,37.90
2018-09-18T16:36:30.728Z,37.90
2018-09-18T16:39:36.461Z,37.70
2018-09-18T16:42:42.394Z,38.00
2018-09-18T16:45:47.898Z,38.30
2018-09-18T16:48:53.730Z,38.60
2018-09-18T16:51:59.090Z,38.50
2018-09-18T16:55:05.276Z,38.70
2018-09-18T16:58:10.849Z,39.30
2018-09-18T17:01:16.209Z,39.20
2018-09-18T17:04:21.563Z,39.80
2018-09-18T17:07:26.994Z,39.90
2018-09-18T17:10:32.459Z,40.40
2018-09-18T17:13:38.034Z,40.80
2018-09-18T17:16:43.399Z,42.30
2018-09-18T17:19:48.804Z,43.50
2018-09-18T17:22:54.182Z,45.20
2018-09-18T17:25:59.570Z,46.90
2018-09-18T17:29:04.996Z,47.70
2018-09-18T17:32:10.566Z,49.40
2018-09-18T17:35:15.920Z,50.60
2018-09-18T17:38:21.297Z,51.30
2018-09-18T17:41:26.766Z,51.50
2018-09-18T17:44:32.263Z,51.70
2018-09-18T17:47:37.920Z,52.30
2018-09-18T17:50:43.478Z,52.90
2018-09-18T17:53:49.233Z,53.70
2018-09-18T17:56:54.626Z,54.20
2018-09-18T18:00:00.152Z,54.70
2018-09-18T18:03:05.545Z,55.30
2018-09-18T18:06:10.911Z,56.10
2018-09-18T18:09:16.245Z,56.90
2018-09-18T18:12:21.604Z,57.40
2018-09-18T18:15:27.074Z,57.90
2018-09-18T18:18:32.451Z,58.60
2018-09-18T18:21:37.877Z,59.40
2018-09-18T18:24:43.230Z,59.60
2018-09-18T18:27:48.789Z,60.00
2018-09-18T18:30:54.220Z,60.40
2018-09-18T18:34:00.311Z,60.90
2018-09-18T18:37:05.702Z,61.30
2018-09-18T18:40:11.069Z,61.50
2018-09-18T18:43:16.449Z,61.80
2018-09-18T18:46:21.846Z,62.30
2018-09-18T18:49:28.171Z,62.70
2018-09-18T18:52:33.678Z,63.10
2018-09-18T18:55:39.038Z,63.30
2018-09-18T18:58:44.578Z,63.70
2018-09-18T19:01:49.966Z,64.20
2018-09-18T19:04:56.032Z,64.10
2018-09-18T19:08:01.424Z,64.90
2018-09-18T19:11:06.815Z,65.30
2018-09-18T19:14:12.342Z,65.70
2018-09-18T19:17:17.728Z,66.00
2018-09-18T19:20:23.093Z,66.40
2018-09-18T19:23:27.508Z,66.40
2018-09-18T19:26:32.926Z,66.60
2018-09-18T19:29:38.332Z,67.20
2018-09-18T19:32:43.778Z,67.60
2018-09-18T19:35:49.334Z,67.70
2018-09-18T19:38:54.701Z,67.80
2018-09-18T19:42:00.531Z,68.40
2018-09-18T19:45:05.985Z,68.60
2018-09-18T19:48:11.355Z,68.80
2018-09-18T19:51:16.701Z,69.00
2018-09-18T19:54:22.600Z,70.20
2018-09-18T19:57:27.971Z,69.90
2018-09-18T20:00:33.330Z,70.50
2018-09-18T20:03:38.716Z,70.80
2018-09-18T20:06:44.065Z,70.90
2018-09-18T20:09:49.450Z,71.40
2018-09-18T20:12:54.802Z,71.30
2018-09-18T20:16:00.205Z,71.30
2018-09-18T20:19:05.637Z,71.30
2018-09-18T20:22:11.686Z,71.60
2018-09-18T20:25:17.562Z,72.90
2018-09-18T20:28:22.914Z,72.20
2018-09-18T20:31:28.343Z,72.20
2018-09-18T20:34:33.749Z,72.50
2018-09-18T20:37:39.144Z,72.90
2018-09-18T20:40:44.606Z,73.20
2018-09-18T20:43:52.098Z,73.60
2018-09-18T20:46:57.996Z,73.60
2018-09-18T20:50:05.155Z,73.50
2018-09-18T20:53:10.545Z,74.10
2018-09-18T20:56:15.943Z,74.20
2018-09-18T20:59:21.389Z,74.60
2018-09-18T21:02:27.117Z,74.80
2018-09-18T21:05:32.545Z,74.70
2018-09-18T21:08:37.927Z,75.00
2018-09-18T21:11:43.343Z,75.00
2018-09-18T21:14:48.763Z,75.40
2018-09-18T21:17:54.570Z,75.40
2018-09-18T21:21:00.066Z,75.70
2018-09-18T21:24:05.899Z,75.80
2018-09-18T21:27:11.357Z,76.00
2018-09-18T21:30:17.733Z,76.20
2018-09-18T21:33:23.114Z,76.40
2018-09-18T21:36:28.503Z,76.80
2018-09-18T21:39:33.879Z,76.60
2018-09-18T21:42:39.280Z,76.70
2018-09-18T21:45:44.762Z,77.50
2018-09-18T21:48:50.136Z,76.90
2018-09-18T21:51:55.522Z,77.30
2018-09-18T21:55:00.890Z,77.50
2018-09-18T21:58:06.286Z,77.60
2018-09-18T22:01:12.114Z,77.80
2018-09-18T22:04:17.665Z,77.90
2018-09-18T22:07:23.066Z,78.30
2018-09-18T22:10:28.459Z,78.40
2018-09-18T22:13:33.836Z,78.50
2018-09-18T22:16:39.225Z,79.00
2018-09-18T22:19:44.594Z,79.30
2018-09-18T22:22:50.452Z,79.60
2018-09-18T22:25:55.863Z,79.90
2018-09-18T22:29:01.242Z,80.00
2018-09-18T22:32:06.680Z,80.40
2018-09-18T22:35:12.156Z,81.00
2018-09-18T22:38:17.719Z,81.40
2018-09-18T22:41:23.115Z,81.60
2018-09-18T22:44:28.483Z,81.80
2018-09-18T22:47:33.910Z,82.10
2018-09-18T22:50:39.316Z,82.40
2018-09-18T22:53:44.874Z,82.50
2018-09-18T22:56:50.258Z,82.90
2018-09-18T22:59:55.626Z,83.30
2018-09-18T23:03:01.013Z,83.30
2018-09-18T23:06:06.374Z,83.00
2018-09-18T23:09:11.773Z,82.30
2018-09-18T23:12:17.156Z,82.30
2018-09-18T23:15:22.528Z,81.70
2018-09-18T23:18:27.918Z,81.20
2018-09-18T23:21:33.283Z,81.00
2018-09-18T23:24:38.672Z,80.30
2018-09-18T23:27:44.060Z,79.20
2018-09-18T23:30:49.418Z,78.60
2018-09-18T23:33:54.772Z,78.50
2018-09-18T23:37:00.102Z,78.60
2018-09-18T23:40:05.852Z,78.30
2018-09-18T23:43:11.449Z,78.50
2018-09-18T23:46:16.781Z,78.10
2018-09-18T23:49:22.158Z,77.80
2018-09-18T23:52:27.494Z,78.10
2018-09-18T23:55:32.854Z,78.00
2018-09-18T23:58:38.218Z,78.20
